createdAt,value
2022-09-18T00:01:16.233Z,0.30
2022-09-18T00:03:43.723Z,0.50
2022-09-18T00:06:13.104Z,0.47
2022-09-18T00:11:08.590Z,0.30
2022-09-18T00:13:37.078Z,0.32
2022-09-18T00:16:05.208Z,0.40
2022-09-18T00:18:32.331Z,0.55
2022-09-18T00:21:10.490Z,0.40
2022-09-18T00:23:37.781Z,0.40
2022-09-18T00:26:05.414Z,0.40
2022-09-18T00:28:33.223Z,0.30
2022-09-18T00:31:12.314Z,0.40
2022-09-18T00:33:40.105Z,0.47
2022-09-18T00:36:09.609Z,0.50
2022-09-18T00:38:37.172Z,0.40
2022-09-18T00:41:07.999Z,0.50
2022-09-18T00:43:37.281Z,0.50
2022-09-18T00:48:45.093Z,0.50
2022-09-18T00:51:14.062Z,0.57
2022-09-18T00:53:47.083Z,0.30
2022-09-18T00:56:15.966Z,0.43
2022-09-18T00:58:44.396Z,0.38
2022-09-18T01:01:11.367Z,0.30
2022-09-18T01:03:38.515Z,0.40
2022-09-18T01:06:11.498Z,0.40
2022-09-18T01:08:41.884Z,0.47
2022-09-18T01:11:18.342Z,0.60
2022-09-18T01:14:19.084Z,0.50
2022-09-18T01:16:58.337Z,0.50
2022-09-18T01:20:00.630Z,0.40
2022-09-18T01:22:45.193Z,0.50
2022-09-18T01:25:22.926Z,0.40
2022-09-18T01:28:11.685Z,0.43
2022-09-18T01:30:43.710Z,0.43
2022-09-18T01:33:25.240Z,0.30
2022-09-18T01:35:55.687Z,0.40
2022-09-18T01:38:37.712Z,0.40
2022-09-18T01:41:21.774Z,0.40
2022-09-18T01:43:58.315Z,0.32
2022-09-18T01:46:25.674Z,0.50
2022-09-18T01:49:06.584Z,0.38
2022-09-18T01:51:49.692Z,0.55
2022-09-18T01:54:20.093Z,0.55
2022-09-18T01:56:52.708Z,0.50
2022-09-18T01:59:25.647Z,0.57
2022-09-18T02:02:03.913Z,0.40
2022-09-18T02:04:35.781Z,0.50
2022-09-18T02:07:15.032Z,0.40
2022-09-18T02:09:43.196Z,0.50
2022-09-18T02:12:16.638Z,0.43
2022-09-18T02:14:47.569Z,0.40
2022-09-18T02:17:58.225Z,0.30
2022-09-18T02:20:44.305Z,0.43
2022-09-18T02:23:11.613Z,0.50
2022-09-18T02:25:59.968Z,0.40
2022-09-18T02:28:30.645Z,0.25
2022-09-18T02:30:58.539Z,0.43
2022-09-18T02:33:31.007Z,0.30
2022-09-18T02:36:12.837Z,0.40
2022-09-18T02:39:08.386Z,0.50
2022-09-18T02:41:38.267Z,0.50
2022-09-18T02:44:14.659Z,0.40
2022-09-18T02:47:08.585Z,0.40
2022-09-18T02:49:54.855Z,0.50
2022-09-18T02:52:39.267Z,0.40
2022-09-18T02:55:15.719Z,0.52
2022-09-18T02:57:56.149Z,0.30
2022-09-18T03:00:23.978Z,0.35
2022-09-18T03:02:51.090Z,0.30
2022-09-18T03:05:30.340Z,0.47
2022-09-18T03:10:28.335Z,0.38
2022-09-18T03:12:56.624Z,0.50
2022-09-18T03:15:23.416Z,0.35
2022-09-18T03:17:50.967Z,0.35
2022-09-18T03:20:17.732Z,0.30
2022-09-18T03:22:44.543Z,0.40
2022-09-18T03:25:15.420Z,0.50
2022-09-18T03:27:42.970Z,0.40
2022-09-18T03:30:13.640Z,0.32
2022-09-18T03:32:40.277Z,0.30
2022-09-18T03:35:09.771Z,0.50
2022-09-18T03:37:36.637Z,0.50
2022-09-18T03:40:06.168Z,0.30
2022-09-18T03:42:32.866Z,0.40
2022-09-18T03:45:00.674Z,0.50
2022-09-18T03:47:27.867Z,0.50
2022-09-18T03:49:54.663Z,0.43
2022-09-18T03:52:22.367Z,0.63
2022-09-18T03:54:55.107Z,0.50
2022-09-18T03:57:42.039Z,0.50
2022-09-18T04:00:28.419Z,0.47
2022-09-18T04:03:03.100Z,0.45
2022-09-18T04:05:29.813Z,0.40
2022-09-18T04:08:35.603Z,0.30
2022-09-18T04:11:12.383Z,0.30
2022-09-18T04:13:39.175Z,0.50
2022-09-18T04:16:09.140Z,0.30
2022-09-18T04:18:36.013Z,0.45
2022-09-18T04:21:04.690Z,0.50
2022-09-18T04:23:31.408Z,0.40
2022-09-18T04:25:58.261Z,0.40
2022-09-18T04:28:30.170Z,0.50
2022-09-18T04:30:57.916Z,0.40
2022-09-18T04:33:24.736Z,0.60
2022-09-18T04:35:51.605Z,0.40
2022-09-18T04:38:18.385Z,0.60
2022-09-18T04:40:45.169Z,0.55
2022-09-18T04:43:11.805Z,0.35
2022-09-18T04:45:40.746Z,0.40
2022-09-18T04:48:07.351Z,0.60
2022-09-18T04:50:34.020Z,0.47
2022-09-18T04:53:10.860Z,0.38
2022-09-18T04:55:37.625Z,0.43
2022-09-18T04:58:04.465Z,0.43
2022-09-18T05:00:33.451Z,0.40
2022-09-18T05:03:00.822Z,0.52
2022-09-18T05:05:29.773Z,0.43
2022-09-18T05:08:03.979Z,0.68
2022-09-18T05:10:31.407Z,0.50
2022-09-18T05:12:58.238Z,0.30
2022-09-18T05:15:26.294Z,0.52
2022-09-18T05:18:00.993Z,0.55
2022-09-18T05:20:28.738Z,0.38
2022-09-18T05:23:00.922Z,0.45
2022-09-18T05:25:29.077Z,0.40
2022-09-18T05:27:57.939Z,0.60
2022-09-18T05:30:28.627Z,0.52
2022-09-18T05:33:01.586Z,0.57
2022-09-18T05:35:32.572Z,0.50
2022-09-18T05:38:00.369Z,0.60
2022-09-18T05:40:31.858Z,0.50
2022-09-18T05:43:00.182Z,0.40
2022-09-18T05:45:26.860Z,0.60
2022-09-18T05:47:55.950Z,1.00
2022-09-18T05:50:23.814Z,0.30
2022-09-18T05:53:18.139Z,0.40
2022-09-18T05:56:05.125Z,0.40
2022-09-18T05:58:32.073Z,0.40
2022-09-18T06:01:01.302Z,0.40
2022-09-18T06:03:42.346Z,0.63
2022-09-18T06:06:09.296Z,0.55
2022-09-18T06:08:36.553Z,0.40
2022-09-18T06:11:03.746Z,0.50
2022-09-18T06:13:31.898Z,0.20
2022-09-18T06:15:59.300Z,0.35
2022-09-18T06:18:35.079Z,0.50
2022-09-18T06:21:02.868Z,0.30
2022-09-18T06:23:31.105Z,0.47
2022-09-18T06:26:14.991Z,0.50
2022-09-18T06:28:42.480Z,0.43
2022-09-18T06:31:10.428Z,0.40
2022-09-18T06:34:04.621Z,0.20
2022-09-18T06:36:31.501Z,0.30
2022-09-18T06:39:04.888Z,0.40
2022-09-18T06:41:32.266Z,0.47
2022-09-18T06:44:00.110Z,0.47
2022-09-18T06:46:38.121Z,0.32
2022-09-18T06:49:25.522Z,0.52
2022-09-18T06:51:52.202Z,0.63
2022-09-18T06:54:18.811Z,0.47
2022-09-18T06:56:47.038Z,0.47
2022-09-18T06:59:15.424Z,0.40
2022-09-18T07:01:42.243Z,0.50
2022-09-18T07:04:29.187Z,0.38
2022-09-18T07:06:57.872Z,0.47
2022-09-18T07:09:28.139Z,0.50
2022-09-18T07:12:03.820Z,0.47
2022-09-18T07:14:44.814Z,0.43
2022-09-18T07:17:17.915Z,0.47
2022-09-18T07:19:46.959Z,0.32
2022-09-18T07:24:46.192Z,0.40
2022-09-18T07:27:13.453Z,0.30
2022-09-18T07:29:41.969Z,0.50
2022-09-18T07:32:12.272Z,0.40
2022-09-18T07:34:39.103Z,0.68
2022-09-18T07:37:10.983Z,0.50
2022-09-18T07:39:38.715Z,0.50
2022-09-18T07:42:23.944Z,0.60
2022-09-18T07:44:53.982Z,0.50
2022-09-18T07:47:21.292Z,0.38
2022-09-18T07:49:48.127Z,0.45
2022-09-18T07:52:15.049Z,0.40
2022-09-18T07:54:45.683Z,0.60
2022-09-18T07:57:30.153Z,0.50
2022-09-18T08:00:17.512Z,0.70
2022-09-18T08:02:49.162Z,0.40
2022-09-18T08:05:35.944Z,0.50
2022-09-18T08:08:12.935Z,0.50
2022-09-18T08:11:05.788Z,0.60
2022-09-18T08:13:52.685Z,0.50
2022-09-18T08:16:34.956Z,0.50
2022-09-18T08:19:10.061Z,0.40
2022-09-18T08:21:46.016Z,0.47
2022-09-18T08:24:17.376Z,0.50
2022-09-18T08:26:45.477Z,0.30
2022-09-18T08:29:19.212Z,0.30
2022-09-18T08:31:55.802Z,0.45
2022-09-18T08:34:22.715Z,0.40
2022-09-18T08:36:49.398Z,0.32
2022-09-18T08:39:25.542Z,0.30
2022-09-18T08:42:33.426Z,0.30
2022-09-18T08:45:09.021Z,0.40
2022-09-18T08:47:52.959Z,0.40
2022-09-18T08:50:38.924Z,0.38
2022-09-18T08:53:27.893Z,0.55
2022-09-18T08:56:25.990Z,0.63
2022-09-18T08:59:21.526Z,0.43
2022-09-18T09:02:25.908Z,0.50
2022-09-18T09:04:58.674Z,0.40
2022-09-18T09:07:25.556Z,0.50
2022-09-18T09:09:55.210Z,0.43
2022-09-18T09:12:31.993Z,0.50
2022-09-18T09:15:28.842Z,0.40
2022-09-18T09:18:19.425Z,0.40
2022-09-18T09:20:55.698Z,0.40
2022-09-18T09:23:36.950Z,0.40
2022-09-18T09:26:18.843Z,0.70
2022-09-18T09:29:03.434Z,0.40
2022-09-18T09:31:42.749Z,0.50
2022-09-18T09:34:21.211Z,0.50
2022-09-18T09:37:03.151Z,0.47
2022-09-18T09:39:39.772Z,0.40
2022-09-18T09:42:21.891Z,0.47
2022-09-18T09:45:18.779Z,0.40
2022-09-18T09:48:10.563Z,0.40
2022-09-18T09:50:43.851Z,0.35
2022-09-18T09:53:12.711Z,0.50
2022-09-18T09:56:12.258Z,0.32
2022-09-18T09:58:52.020Z,0.35
2022-09-18T10:01:27.218Z,0.47
2022-09-18T10:04:15.231Z,0.60
2022-09-18T10:07:01.814Z,0.40
2022-09-18T10:09:38.033Z,0.60
2022-09-18T10:12:33.835Z,0.60
2022-09-18T10:15:15.885Z,0.40
2022-09-18T10:17:44.607Z,0.30
2022-09-18T10:20:17.904Z,0.40
2022-09-18T10:22:48.033Z,0.50
2022-09-18T10:25:27.225Z,0.52
2022-09-18T10:27:54.962Z,0.40
2022-09-18T10:30:21.893Z,0.50
2022-09-18T10:32:53.057Z,0.50
2022-09-18T10:35:42.797Z,0.52
2022-09-18T10:38:32.282Z,0.60
2022-09-18T10:43:55.940Z,0.60
2022-09-18T10:46:27.634Z,0.60
2022-09-18T10:48:55.627Z,0.50
2022-09-18T10:51:25.799Z,0.40
2022-09-18T10:54:04.688Z,0.40
2022-09-18T10:56:48.403Z,0.60
2022-09-18T10:59:33.920Z,0.45
2022-09-18T11:02:05.066Z,0.73
2022-09-18T11:04:34.828Z,0.60
2022-09-18T11:07:07.545Z,0.50
2022-09-18T11:09:40.188Z,0.60
2022-09-18T11:12:24.272Z,0.47
2022-09-18T11:15:01.390Z,0.50
2022-09-18T11:17:31.957Z,0.70
2022-09-18T11:20:03.343Z,0.50
2022-09-18T11:22:53.506Z,0.50
2022-09-18T11:25:31.030Z,0.60
2022-09-18T11:28:28.911Z,0.60
2022-09-18T11:31:11.733Z,0.52
2022-09-18T11:33:44.138Z,0.50
2022-09-18T11:36:14.565Z,0.47
2022-09-18T11:38:46.830Z,0.50
2022-09-18T11:41:22.751Z,0.45
2022-09-18T11:44:02.535Z,0.57
2022-09-18T11:46:51.895Z,0.60
2022-09-18T11:49:51.292Z,0.50
2022-09-18T11:52:33.895Z,0.60
2022-09-18T11:55:08.349Z,0.60
2022-09-18T11:57:53.308Z,0.57
2022-09-18T12:00:22.454Z,0.50
2022-09-18T12:03:26.918Z,0.60
2022-09-18T12:06:03.082Z,0.60
2022-09-18T12:09:00.724Z,0.60
2022-09-18T12:14:08.285Z,0.47
2022-09-18T12:17:00.915Z,0.60
2022-09-18T12:19:40.164Z,0.60
2022-09-18T12:22:19.061Z,0.40
2022-09-18T12:24:46.316Z,0.40
2022-09-18T12:27:40.497Z,0.70
2022-09-18T12:30:16.410Z,0.40
2022-09-18T12:33:08.000Z,0.55
2022-09-18T12:36:04.440Z,0.60
2022-09-18T12:38:42.818Z,0.52
2022-09-18T12:41:29.990Z,0.60
2022-09-18T12:44:21.277Z,0.50
2022-09-18T12:46:51.156Z,0.40
2022-09-18T12:49:45.698Z,0.50
2022-09-18T12:52:23.040Z,0.50
2022-09-18T12:55:03.803Z,0.50
2022-09-18T12:57:47.599Z,0.60
2022-09-18T13:00:16.157Z,0.50
2022-09-18T13:02:53.603Z,0.50
2022-09-18T13:05:56.530Z,0.38
2022-09-18T13:08:41.658Z,0.68
2022-09-18T13:11:32.878Z,0.40
2022-09-18T13:14:05.006Z,0.75
2022-09-18T13:16:48.311Z,0.50
2022-09-18T13:19:54.510Z,0.50
2022-09-18T13:22:22.827Z,0.60
2022-09-18T13:24:53.028Z,0.45
2022-09-18T13:27:24.626Z,0.63
2022-09-18T13:29:51.084Z,0.70
2022-09-18T13:32:39.878Z,0.47
2022-09-18T13:35:12.324Z,0.70
2022-09-18T13:37:39.929Z,0.60
2022-09-18T13:40:28.058Z,0.47
2022-09-18T13:42:54.835Z,0.60
2022-09-18T13:45:25.970Z,0.60
2022-09-18T13:48:20.541Z,0.60
2022-09-18T13:50:53.175Z,0.40
2022-09-18T13:54:10.512Z,0.50
2022-09-18T13:57:09.482Z,0.60
2022-09-18T13:59:48.101Z,0.50
2022-09-18T14:02:27.861Z,0.60
2022-09-18T14:05:24.461Z,0.60
2022-09-18T14:08:04.429Z,0.63
2022-09-18T14:10:37.163Z,0.60
2022-09-18T14:13:18.827Z,0.60
2022-09-18T14:15:54.288Z,0.65
2022-09-18T14:18:53.160Z,0.43
2022-09-18T14:21:31.714Z,0.88
2022-09-18T14:24:19.722Z,0.50
2022-09-18T14:26:47.150Z,0.50
2022-09-18T14:29:18.103Z,0.40
2022-09-18T14:31:44.691Z,0.45
2022-09-18T14:34:23.429Z,0.63
2022-09-18T14:37:01.788Z,0.60
2022-09-18T14:39:36.658Z,0.60
2022-09-18T14:42:13.571Z,0.70
2022-09-18T14:44:48.281Z,0.60
2022-09-18T14:47:26.739Z,0.60
2022-09-18T14:49:53.907Z,0.60
2022-09-18T14:52:26.333Z,0.70
2022-09-18T14:54:56.054Z,0.70
2022-09-18T14:57:45.842Z,0.63
2022-09-18T15:00:20.363Z,0.60
2022-09-18T15:02:52.517Z,0.70
2022-09-18T15:05:21.164Z,0.50
2022-09-18T15:07:54.902Z,0.57
2022-09-18T15:10:22.782Z,0.50
2022-09-18T15:12:49.748Z,0.50
2022-09-18T15:15:32.715Z,1.05
2022-09-18T15:18:00.363Z,0.80
2022-09-18T15:20:29.041Z,0.70
2022-09-18T15:22:56.792Z,0.65
2022-09-18T15:25:35.589Z,0.60
2022-09-18T15:28:06.947Z,0.60
2022-09-18T15:30:36.363Z,0.45
2022-09-18T15:35:36.676Z,0.68
2022-09-18T15:38:07.805Z,0.50
2022-09-18T15:40:39.134Z,0.60
2022-09-18T15:43:26.894Z,0.60
2022-09-18T15:46:24.944Z,0.70
2022-09-18T15:48:52.338Z,0.80
2022-09-18T15:51:29.077Z,0.80
2022-09-18T15:54:01.757Z,0.63
2022-09-18T15:56:29.854Z,0.75
2022-09-18T15:58:59.416Z,0.70
2022-09-18T16:01:39.808Z,1.00
2022-09-18T16:04:23.643Z,0.90
2022-09-18T16:07:02.994Z,0.75
2022-09-18T16:09:41.872Z,0.90
2022-09-18T16:12:29.246Z,0.90
2022-09-18T16:15:08.722Z,0.80
2022-09-18T16:17:37.892Z,0.98
2022-09-18T16:20:30.069Z,0.80
2022-09-18T16:23:20.341Z,1.02
2022-09-18T16:26:06.015Z,1.00
2022-09-18T16:28:40.787Z,0.90
2022-09-18T16:31:07.697Z,1.00
2022-09-18T16:33:35.132Z,0.73
2022-09-18T16:36:08.627Z,0.77
2022-09-18T16:38:35.848Z,1.10
2022-09-18T16:41:02.813Z,0.80
2022-09-18T16:43:29.889Z,0.77
2022-09-18T16:45:56.648Z,1.00
2022-09-18T16:48:24.418Z,1.08
2022-09-18T16:50:51.148Z,0.77
2022-09-18T16:53:18.191Z,0.70
2022-09-18T16:55:49.275Z,0.90
2022-09-18T16:58:18.083Z,0.90
2022-09-18T17:00:45.028Z,0.80
2022-09-18T17:03:12.235Z,0.80
2022-09-18T17:05:39.302Z,1.00
2022-09-18T17:08:06.447Z,0.57
2022-09-18T17:10:34.553Z,1.00
2022-09-18T17:13:02.245Z,0.70
2022-09-18T17:15:29.713Z,0.82
2022-09-18T17:17:56.710Z,0.80
2022-09-18T17:20:23.297Z,0.85
2022-09-18T17:22:51.027Z,0.70
2022-09-18T17:25:18.452Z,0.90
2022-09-18T17:27:45.222Z,0.73
2022-09-18T17:30:12.701Z,0.70
2022-09-18T17:32:39.369Z,0.77
2022-09-18T17:35:06.628Z,0.90
2022-09-18T17:37:33.186Z,0.80
2022-09-18T17:40:00.377Z,0.68
2022-09-18T17:42:27.234Z,0.80
2022-09-18T17:44:54.025Z,0.90
2022-09-18T17:47:20.734Z,0.60
2022-09-18T17:49:47.586Z,1.15
2022-09-18T17:52:15.128Z,0.85
2022-09-18T17:54:42.703Z,0.90
2022-09-18T17:57:12.305Z,0.60
2022-09-18T17:59:40.565Z,0.57
2022-09-18T18:02:09.242Z,0.82
2022-09-18T18:04:36.337Z,0.50
2022-09-18T18:07:05.186Z,0.65
2022-09-18T18:09:32.140Z,0.55
2022-09-18T18:11:58.912Z,0.80
2022-09-18T18:14:25.745Z,0.75
2022-09-18T18:16:52.747Z,0.70
2022-09-18T18:19:19.644Z,0.70
2022-09-18T18:21:46.274Z,0.60
2022-09-18T18:24:16.885Z,0.80
2022-09-18T18:26:44.554Z,0.73
2022-09-18T18:29:14.208Z,0.60
2022-09-18T18:31:43.154Z,1.13
2022-09-18T18:34:11.777Z,0.68
2022-09-18T18:36:40.346Z,0.80
2022-09-18T18:39:12.087Z,0.50
2022-09-18T18:41:39.736Z,0.80
2022-09-18T18:44:06.934Z,0.40
2022-09-18T18:46:36.733Z,0.90
2022-09-18T18:49:12.315Z,0.70
2022-09-18T18:51:43.785Z,0.57
2022-09-18T18:54:11.543Z,0.65
2022-09-18T18:56:39.021Z,0.77
2022-09-18T18:59:11.053Z,0.90
2022-09-18T19:01:39.351Z,0.57
2022-09-18T19:04:09.274Z,0.60
2022-09-18T19:06:39.539Z,0.60
2022-09-18T19:09:19.845Z,0.70
2022-09-18T19:11:48.388Z,0.60
2022-09-18T19:14:19.309Z,0.98
2022-09-18T19:16:47.137Z,0.63
2022-09-18T19:19:16.054Z,0.60
2022-09-18T19:21:43.008Z,0.80
2022-09-18T19:24:11.372Z,0.63
2022-09-18T19:26:39.764Z,0.85
2022-09-18T19:29:11.048Z,0.70
2022-09-18T19:31:39.498Z,0.68
2022-09-18T19:34:09.093Z,0.70
2022-09-18T19:36:36.538Z,0.60
2022-09-18T19:39:06.147Z,0.70
2022-09-18T19:41:38.906Z,0.75
2022-09-18T19:44:38.879Z,0.60
2022-09-18T19:47:34.574Z,0.50
2022-09-18T19:50:03.261Z,0.75
2022-09-18T19:52:29.991Z,0.60
2022-09-18T19:54:58.062Z,0.60
2022-09-18T19:57:26.715Z,0.60
2022-09-18T19:59:55.192Z,0.52
2022-09-18T20:02:23.876Z,0.70
2022-09-18T20:04:50.498Z,0.52
2022-09-18T20:07:17.174Z,0.50
2022-09-18T20:09:43.955Z,0.50
2022-09-18T20:12:10.853Z,0.63
2022-09-18T20:14:37.604Z,0.63
2022-09-18T20:17:04.535Z,0.63
2022-09-18T20:19:31.419Z,0.68
2022-09-18T20:22:02.157Z,0.55
2022-09-18T20:24:32.750Z,0.60
2022-09-18T20:27:00.799Z,0.60
2022-09-18T20:29:28.915Z,0.80
2022-09-18T20:31:55.853Z,0.60
2022-09-18T20:34:23.192Z,0.73
2022-09-18T20:36:50.091Z,0.80
2022-09-18T20:39:16.631Z,0.70
2022-09-18T20:41:43.264Z,1.05
2022-09-18T20:44:10.049Z,0.70
2022-09-18T20:46:37.652Z,0.60
2022-09-18T20:49:05.123Z,0.55
2022-09-18T20:51:35.794Z,0.70
2022-09-18T20:54:04.497Z,0.60
2022-09-18T20:56:36.083Z,0.57
2022-09-18T20:59:05.102Z,0.82
2022-09-18T21:01:35.495Z,0.88
2022-09-18T21:04:02.675Z,0.70
2022-09-18T21:06:32.983Z,0.60
2022-09-18T21:09:03.773Z,0.50
2022-09-18T21:11:31.974Z,0.63
2022-09-18T21:14:01.128Z,0.73
2022-09-18T21:16:30.320Z,0.60
2022-09-18T21:19:00.268Z,0.60
2022-09-18T21:21:30.418Z,0.80
2022-09-18T21:24:01.274Z,1.60
2022-09-18T21:26:33.797Z,0.95
2022-09-18T21:29:03.271Z,0.93
2022-09-18T21:31:31.237Z,1.23
2022-09-18T21:34:00.260Z,1.20
2022-09-18T21:36:27.950Z,0.98
2022-09-18T21:38:55.205Z,1.55
2022-09-18T21:41:24.758Z,0.80
2022-09-18T21:43:54.031Z,1.15
2022-09-18T21:48:52.924Z,1.75
2022-09-18T21:51:19.674Z,1.17
2022-09-18T21:53:46.213Z,1.00
2022-09-18T21:56:15.988Z,1.02
2022-09-18T21:58:47.329Z,0.98
2022-09-18T22:01:26.783Z,0.70
2022-09-18T22:03:55.984Z,1.02
2022-09-18T22:06:25.227Z,0.73
2022-09-18T22:11:24.196Z,0.70
2022-09-18T22:13:53.018Z,0.98
2022-09-18T22:16:20.968Z,0.82
2022-09-18T22:18:48.505Z,0.60
2022-09-18T22:21:24.099Z,0.50
2022-09-18T22:23:59.654Z,0.80
2022-09-18T22:26:28.525Z,0.65
2022-09-18T22:28:56.558Z,0.73
2022-09-18T22:31:24.550Z,0.82
2022-09-18T22:33:58.118Z,0.75
2022-09-18T22:36:25.532Z,0.70
2022-09-18T22:38:53.212Z,0.60
2022-09-18T22:41:20.865Z,0.52
2022-09-18T22:43:47.772Z,0.40
2022-09-18T22:46:16.495Z,0.40
2022-09-18T22:48:44.182Z,0.50
2022-09-18T22:51:17.524Z,0.80
2022-09-18T22:53:56.331Z,1.02
2022-09-18T22:56:27.593Z,0.57
2022-09-18T22:58:56.238Z,0.47
2022-09-18T23:01:31.899Z,0.30
2022-09-18T23:04:01.481Z,0.73
2022-09-18T23:06:28.416Z,0.50
2022-09-18T23:08:58.237Z,0.90
2022-09-18T23:11:26.223Z,0.50
2022-09-18T23:13:53.886Z,0.63
2022-09-18T23:16:22.708Z,0.55
2022-09-18T23:18:51.153Z,0.70
2022-09-18T23:21:17.794Z,0.60
2022-09-18T23:23:45.374Z,0.50
2022-09-18T23:26:13.982Z,0.40
2022-09-18T23:28:43.737Z,0.40
2022-09-18T23:31:15.505Z,0.50
2022-09-18T23:33:43.891Z,0.45
2022-09-18T23:36:13.805Z,0.65
2022-09-18T23:38:42.654Z,0.63
2022-09-18T23:41:11.996Z,0.50
2022-09-18T23:46:05.951Z,0.40
2022-09-18T23:48:32.786Z,0.30
2022-09-18T23:51:00.924Z,0.80
2022-09-18T23:53:29.895Z,0.45
2022-09-18T23:56:05.498Z,0.50
2022-09-18T23:58:32.523Z,0.50
